Vilas, Texas
Current Conditions -  °F | °C
As of 7:58 AM on Tuesday 27 Jan 2015 (Local Time) from KGRK Reporting Station
Clear Clear  
Wind Chill: 56°   Ceiling: Unl
Heat Index: 56°   Visibility: 9mi
Dew Point: 36°   Wind: 9mph
Humidity: 47%   Direction: 280°W
Pressure: 30.17"   Gusts: NA
Location:  30.8644°N, 97.3623°W
Report Text: KGRK 271358Z AUTO 28008KT 9SM CLR 13/02 A3017 RMK AO2 SLP214 T01310021
Loading
Personal Weather Stations






























Interactive Weather Map New forecast layout! Learn more

10-Day Weather Forecast

Advertisements
Track Severe Weather on mobile